Time;durP1;ratioP1;P1;durP2;ratioP2;P2;SDS_P1;SDS_P2;PMS_P1;PMS_P2;Temp;Humidity;BMP_temperature;BMP_pressure;BME280_temperature;BME280_humidity;BME280_pressure;Samples;Min_cycle;Max_cycle;Signal;HPM_P1;HPM_P2
2022/01/31 00:00:46;;;;;;;6.15;1.15;;;;;;;11.21;58.79;101084.81;4994640;28;20476;-89
2022/01/31 00:03:11;;;;;;;6.95;1.30;;;;;;;10.95;58.67;101091.63;4993947;28;20097;-89
2022/01/31 00:05:36;;;;;;;15.85;1.50;;;;;;;10.69;58.40;101084.31;4994039;28;20037;-89
2022/01/31 00:08:02;;;;;;;9.50;2.08;;;;;;;10.74;58.46;101114.72;4992956;28;20125;-88
2022/01/31 00:10:29;;;;;;;6.50;1.33;;;;;;;10.73;58.21;101095.50;4993280;28;20487;-89
2022/01/31 00:15:25;;;;;;;3.28;0.90;;;;;;;10.42;58.23;101133.13;4993444;28;20036;-90
2022/01/31 00:17:51;;;;;;;8.27;1.10;;;;;;;10.68;57.72;101144.78;4993716;28;20113;-89
2022/01/31 00:20:16;;;;;;;7.47;1.17;;;;;;;10.71;57.54;101140.22;4993504;28;20034;-89
2022/01/31 00:22:41;;;;;;;8.98;1.50;;;;;;;10.77;57.34;101140.81;4993469;28;20102;-89
2022/01/31 00:25:07;;;;;;;6.28;1.20;;;;;;;11.08;56.70;101158.31;4993529;28;20395;-89
2022/01/31 00:27:33;;;;;;;7.28;1.45;;;;;;;10.96;56.29;101144.09;4993186;28;20031;-89
2022/01/31 00:29:58;;;;;;;7.85;1.23;;;;;;;11.20;55.92;101114.69;4993474;28;20034;-89
2022/01/31 00:32:23;;;;;;;8.27;1.35;;;;;;;11.11;55.54;101110.78;4992948;28;20022;-90
2022/01/31 00:34:49;;;;;;;6.82;0.90;;;;;;;11.36;55.20;101118.09;4993163;28;20082;-90
2022/01/31 00:37:14;;;;;;;7.00;1.27;;;;;;;11.23;55.39;101132.88;4993086;28;20030;-89
2022/01/31 00:39:40;;;;;;;8.20;1.65;;;;;;;11.04;55.69;101147.13;4993290;28;20080;-90
2022/01/31 00:42:07;;;;;;;8.48;1.15;;;;;;;11.12;55.63;101130.91;4991979;28;20455;-90
2022/01/31 00:44:49;;;;;;;6.85;1.25;;;;;;;11.21;55.53;101143.47;4993461;28;20026;-90
2022/01/31 00:47:21;;;;;;;7.13;1.33;;;;;;;11.21;55.55;101140.00;4992594;28;20407;-90
2022/01/31 00:49:51;;;;;;;6.68;1.27;;;;;;;11.37;55.40;101121.53;4993070;28;20030;-89
2022/01/31 00:52:18;;;;;;;6.68;1.10;;;;;;;11.25;56.05;101136.25;4993445;28;20018;-90
2022/01/31 00:54:44;;;;;;;3.45;0.75;;;;;;;11.20;56.47;101140.97;4993092;28;20054;-89
2022/01/31 00:57:09;;;;;;;3.65;1.15;;;;;;;11.15;56.21;101166.66;4992905;28;20030;-89
2022/01/31 00:59:35;;;;;;;7.32;1.13;;;;;;;10.88;56.39;101147.16;4992927;28;20354;-89
2022/01/31 01:02:00;;;;;;;12.40;1.60;;;;;;;11.23;56.13;101161.81;4992806;28;20105;-90
2022/01/31 01:04:25;;;;;;;8.10;1.30;;;;;;;11.26;56.63;101141.44;4992694;28;20030;-90
2022/01/31 01:06:51;;;;;;;8.48;1.17;;;;;;;11.28;56.79;101130.84;4992970;28;20425;-90
2022/01/31 01:09:16;;;;;;;8.60;1.55;;;;;;;11.28;57.14;101150.09;4993131;28;20038;-89
2022/01/31 01:11:42;;;;;;;7.32;1.35;;;;;;;11.46;56.43;101142.03;4993257;28;20488;-89
2022/01/31 01:14:07;;;;;;;6.40;1.10;;;;;;;11.32;56.84;101130.56;4992610;28;20527;-90
2022/01/31 01:16:33;;;;;;;13.25;2.35;;;;;;;11.38;56.35;101121.47;4991720;28;20073;-89
2022/01/31 01:18:58;;;;;;;6.95;1.52;;;;;;;11.37;56.73;101122.38;4992789;28;20461;-90
2022/01/31 01:21:24;;;;;;;6.68;1.13;;;;;;;11.44;56.55;101139.50;4991940;28;20033;-89
2022/01/31 01:23:49;;;;;;;13.77;1.67;;;;;;;11.48;56.13;101130.47;4996207;28;20044;-89
2022/01/31 01:26:15;;;;;;;8.98;1.05;;;;;;;11.27;56.01;101131.75;4996061;28;20120;-89
2022/01/31 01:28:40;;;;;;;7.90;1.55;;;;;;;11.14;56.54;101120.28;4996492;28;20026;-90
2022/01/31 01:31:06;;;;;;;16.63;1.92;;;;;;;11.09;56.76;101126.66;4996239;28;20037;-89
2022/01/31 01:33:38;;;;;;;11.77;2.70;;;;;;;11.11;56.94;101116.06;4996069;28;20022;-90
2022/01/31 01:36:04;;;;;;;;;;;;;;;11.07;56.64;101131.16;4996639;28;20041;-90
2022/01/31 01:38:30;;;;;;;10.63;1.90;;;;;;;10.99;57.05;101132.53;4996122;28;20004;-89
2022/01/31 01:40:59;;;;;;;11.80;1.80;;;;;;;11.10;56.79;101135.41;4995946;28;20412;-90
2022/01/31 01:43:25;;;;;;;9.80;1.85;;;;;;;11.15;55.98;101122.81;4995731;28;20046;-90
2022/01/31 01:45:55;;;;;;;11.40;1.83;;;;;;;11.03;56.04;101111.25;4996044;28;20484;-90
2022/01/31 01:48:21;;;;;;;7.25;1.63;;;;;;;11.19;55.28;101131.38;4995998;28;20427;-90
2022/01/31 01:50:47;;;;;;;9.48;1.25;;;;;;;10.70;55.93;101114.91;4995904;28;20034;-89
2022/01/31 01:53:12;;;;;;;7.32;1.48;;;;;;;10.87;55.73;101115.72;4995886;28;20042;-90
2022/01/31 01:55:38;;;;;;;6.10;1.50;;;;;;;10.86;55.74;101119.25;4995778;28;20030;-90
2022/01/31 01:58:06;;;;;;;6.43;1.60;;;;;;;10.82;55.71;101115.13;4994563;28;20472;-89
2022/01/31 02:00:49;;;;;;;9.88;1.60;;;;;;;10.60;56.17;101115.50;4995715;28;20073;-90
2022/01/31 02:03:15;;;;;;;10.52;2.47;;;;;;;10.77;56.10;101127.69;4995481;28;20030;-89
2022/01/31 02:05:41;;;;;;;13.70;3.08;;;;;;;10.65;55.94;101122.19;4995161;28;20030;-90
2022/01/31 02:08:06;;;;;;;5.85;1.13;;;;;;;10.65;56.46;101132.69;4994247;28;20031;-90
2022/01/31 02:10:31;;;;;;;11.68;1.85;;;;;;;10.45;57.02;101111.97;4995523;28;20034;-89
2022/01/31 02:13:03;;;;;;;10.45;2.25;;;;;;;10.77;56.17;101132.94;4995137;28;20084;-90
2022/01/31 02:15:29;;;;;;;;;;;;;;;10.59;55.58;101125.16;4995680;28;20026;-89
2022/01/31 02:17:54;;;;;;;5.35;1.02;;;;;;;10.71;55.06;101127.09;4995283;28;19920;-90
2022/01/31 02:20:19;;;;;;;9.18;1.73;;;;;;;10.55;54.94;101118.41;4994012;28;20084;-90
2022/01/31 02:22:46;;;;;;;7.75;1.45;;;;;;;10.52;54.63;101129.06;4995438;28;20023;-89
2022/01/31 02:25:12;;;;;;;10.40;1.75;;;;;;;10.57;55.06;101121.78;4995074;28;20033;-89
2022/01/31 02:27:39;;;;;;;13.73;1.73;;;;;;;10.83;53.91;101120.28;4995179;28;20038;-90
2022/01/31 02:30:07;;;;;;;10.07;1.30;;;;;;;10.67;54.01;101122.09;4995011;28;20105;-90
2022/01/31 02:32:35;;;;;;;8.88;1.17;;;;;;;10.83;53.52;101115.03;4993784;28;20037;-90
2022/01/31 02:35:00;;;;;;;9.55;1.58;;;;;;;10.56;53.84;101120.06;4994406;28;20592;-89
2022/01/31 02:37:25;;;;;;;11.40;1.30;;;;;;;10.58;54.04;101110.31;4995233;28;20026;-89
2022/01/31 02:39:51;;;;;;;10.18;1.73;;;;;;;10.45;53.93;101127.72;4995276;28;20081;-90
2022/01/31 02:42:16;;;;;;;6.72;1.88;;;;;;;10.55;53.50;101144.66;4977563;28;20030;-90
2022/01/31 02:44:43;;;;;;;9.70;1.63;;;;;;;10.69;53.42;101167.50;4994752;28;20036;-90
2022/01/31 02:47:12;;;;;;;9.60;1.48;;;;;;;10.31;54.48;101149.50;4994723;28;20425;-90
2022/01/31 02:50:20;;;;;;;7.28;1.70;;;;;;;10.63;53.71;101146.84;4994841;28;20038;-90
2022/01/31 02:52:31;;;;;;;11.13;1.52;;;;;;;10.14;54.69;101153.00;4994057;28;20026;-89
2022/01/31 02:54:57;;;;;;;13.95;1.70;;;;;;;10.29;54.54;101165.28;4994584;28;20022;-89
2022/01/31 02:57:22;;;;;;;12.23;2.05;;;;;;;10.09;54.81;101157.63;4994571;28;20014;-90
2022/01/31 02:59:48;;;;;;;10.90;1.73;;;;;;;10.32;54.56;101152.00;4994658;28;20033;-90
2022/01/31 03:02:14;;;;;;;9.60;1.80;;;;;;;10.63;54.08;101157.34;4994420;28;20026;-90
2022/01/31 03:04:40;;;;;;;12.68;1.58;;;;;;;10.55;53.93;101162.19;4993769;28;20082;-90
2022/01/31 03:07:06;;;;;;;18.50;2.42;;;;;;;10.18;54.90;101133.53;4994118;28;20034;-89
2022/01/31 03:09:31;;;;;;;9.20;2.20;;;;;;;10.47;53.80;101144.25;4994063;28;20026;-90
2022/01/31 03:11:57;;;;;;;12.38;2.80;;;;;;;10.26;54.36;101139.19;4994524;28;20057;-90
2022/01/31 03:14:22;;;;;;;10.55;2.00;;;;;;;10.31;54.19;101131.97;4994032;28;20384;-91
2022/01/31 03:16:48;;;;;;;11.93;1.77;;;;;;;10.68;53.21;101137.78;4994324;28;20041;-91
2022/01/31 03:19:15;;;;;;;14.32;2.00;;;;;;;10.71;52.97;101124.47;4994121;28;20026;-90
2022/01/31 03:21:41;;;;;;;17.38;3.55;;;;;;;10.55;53.58;101128.06;4994350;28;20027;-90
2022/01/31 03:24:07;;;;;;;13.90;2.40;;;;;;;10.68;53.13;101140.41;5001184;28;20495;-90
2022/01/31 03:26:33;;;;;;;11.95;2.70;;;;;;;10.80;52.99;101136.25;5012373;28;20030;-89
2022/01/31 03:28:58;;;;;;;7.57;1.60;;;;;;;10.92;53.14;101137.31;5010888;28;20022;-90
2022/01/31 03:31:24;;;;;;;9.63;1.85;;;;;;;10.95;52.74;101131.88;5012093;28;20038;-89
2022/01/31 03:33:51;;;;;;;14.80;3.08;;;;;;;10.98;52.60;101146.59;5009753;28;20049;-91
2022/01/31 03:36:17;;;;;;;10.57;1.90;;;;;;;10.66;53.19;101136.16;5010343;28;20022;-89
2022/01/31 03:38:43;;;;;;;21.25;2.85;;;;;;;10.87;52.77;101134.94;5008654;28;20133;-90
2022/01/31 03:41:15;;;;;;;13.35;2.65;;;;;;;10.77;52.31;101123.28;4996171;28;20472;-90
2022/01/31 03:43:41;;;;;;;12.40;1.92;;;;;;;10.90;52.50;101126.06;4994669;28;20117;-90
2022/01/31 03:46:07;;;;;;;9.10;1.58;;;;;;;10.92;52.13;101124.19;4994972;28;20027;-90
2022/01/31 03:48:33;;;;;;;13.00;2.45;;;;;;;10.81;52.59;101130.03;4995213;28;20092;-89
2022/01/31 03:50:59;;;;;;;10.60;1.95;;;;;;;10.77;52.36;101118.00;4995160;28;20010;-90
2022/01/31 03:53:25;;;;;;;11.07;1.88;;;;;;;10.69;51.99;101121.06;4994506;28;20100;-90
2022/01/31 03:55:51;;;;;;;13.98;2.33;;;;;;;10.77;52.28;101125.06;4994331;28;20018;-90
2022/01/31 03:58:16;;;;;;;14.00;2.25;;;;;;;10.52;53.04;101121.19;4993093;28;20018;-91
2022/01/31 04:00:43;;;;;;;13.23;2.00;;;;;;;10.68;52.37;101123.78;4994591;28;20027;-90
2022/01/31 04:03:08;;;;;;;15.00;2.58;;;;;;;10.78;52.55;101124.09;4994325;28;20022;-91
2022/01/31 04:05:34;;;;;;;11.57;2.42;;;;;;;10.77;52.92;101130.31;4993736;28;20037;-90
2022/01/31 04:07:59;;;;;;;8.73;2.35;;;;;;;10.75;52.54;101132.19;4993693;28;20037;-91
2022/01/31 04:10:26;;;;;;;13.05;2.60;;;;;;;10.72;52.80;101141.06;4994086;28;20026;-91
2022/01/31 04:12:52;;;;;;;11.40;2.03;;;;;;;10.64;52.69;101138.91;4993757;28;20026;-90
2022/01/31 04:15:17;;;;;;;12.38;2.22;;;;;;;10.60;52.45;101136.50;4992784;28;20018;-90
2022/01/31 04:17:43;;;;;;;16.10;1.83;;;;;;;10.50;52.63;101138.81;4993427;28;20032;-90
2022/01/31 04:20:09;;;;;;;11.30;2.45;;;;;;;10.43;52.74;101156.69;4993636;28;20022;-90
2022/01/31 04:22:41;;;;;;;11.15;1.98;;;;;;;10.45;52.86;101172.38;4993302;28;20500;-90
2022/01/31 04:25:16;;;;;;;10.65;1.83;;;;;;;10.47;52.83;101160.00;4993642;28;20054;-90
2022/01/31 04:27:45;;;;;;;15.02;2.63;;;;;;;10.36;53.19;101163.19;4993338;28;20030;-90
2022/01/31 04:30:13;;;;;;;13.45;2.08;;;;;;;10.65;52.00;101166.84;4993578;28;20105;-90
2022/01/31 04:32:38;;;;;;;12.35;2.75;;;;;;;10.49;51.91;101150.25;4993454;28;20022;-91
2022/01/31 04:35:04;;;;;;;7.68;1.63;;;;;;;10.57;52.15;101163.78;4993429;28;20080;-90
2022/01/31 04:37:29;;;;;;;13.57;2.55;;;;;;;10.51;52.16;101153.63;4993313;28;20026;-90
2022/01/31 04:39:55;;;;;;;15.48;3.40;;;;;;;10.40;52.77;101151.59;4993305;28;20385;-91
2022/01/31 04:42:21;;;;;;;16.80;2.55;;;;;;;10.36;52.11;101154.47;4993256;28;20026;-91
2022/01/31 04:44:48;;;;;;;9.77;2.33;;;;;;;10.37;52.42;101172.78;4993450;28;20500;-91
2022/01/31 04:47:13;;;;;;;10.60;1.75;;;;;;;10.49;51.77;101161.59;4991949;28;20058;-91
2022/01/31 04:49:39;;;;;;;12.57;2.50;;;;;;;10.27;52.11;101161.91;4993424;28;20513;-91
2022/01/31 04:52:04;;;;;;;10.77;2.15;;;;;;;10.56;51.89;101167.34;4993470;28;20080;-89
2022/01/31 04:54:29;;;;;;;10.48;1.63;;;;;;;10.47;51.49;101183.63;4993264;28;20476;-91
2022/01/31 04:56:55;;;;;;;12.10;1.92;;;;;;;10.48;51.57;101195.81;4994057;28;20033;-91
2022/01/31 04:59:20;;;;;;;11.43;2.17;;;;;;;10.32;52.16;101206.28;4997236;28;20034;-91
2022/01/31 05:01:48;;;;;;;8.18;1.75;;;;;;;9.91;52.85;101199.69;4995865;28;20084;-91
2022/01/31 05:04:14;;;;;;;14.20;1.77;;;;;;;10.18;52.64;101219.28;4996875;28;20031;-91
2022/01/31 05:06:41;;;;;;;11.40;2.05;;;;;;;9.91;52.95;101217.19;4996818;28;20041;-90
2022/01/31 05:09:09;;;;;;;9.93;1.92;;;;;;;10.02;52.73;101232.38;4996754;28;20026;-91
2022/01/31 05:11:34;;;;;;;13.93;2.45;;;;;;;9.98;52.40;101238.72;4996974;28;20022;-91
2022/01/31 05:14:00;;;;;;;11.77;2.20;;;;;;;9.95;52.71;101233.59;4996533;28;20030;-90
2022/01/31 05:16:26;;;;;;;10.20;2.90;;;;;;;10.09;52.72;101241.59;4996654;28;20058;-91
2022/01/31 05:18:51;;;;;;;17.30;2.50;;;;;;;9.90;52.53;101232.06;4996607;28;20030;-91
2022/01/31 05:21:16;;;;;;;12.77;2.47;;;;;;;10.10;52.62;101244.16;4996746;28;20381;-90
2022/01/31 05:23:42;;;;;;;7.30;1.60;;;;;;;10.17;52.47;101238.56;4996188;28;20105;-90
2022/01/31 05:26:08;;;;;;;12.65;2.17;;;;;;;10.14;52.77;101234.34;4995992;28;20404;-91
2022/01/31 05:28:34;;;;;;;14.13;3.05;;;;;;;10.17;52.91;101235.94;4994967;28;20218;-90
2022/01/31 05:31:00;;;;;;;10.30;2.15;;;;;;;10.27;52.56;101245.06;4994876;28;20358;-89
2022/01/31 05:33:25;;;;;;;11.88;2.78;;;;;;;9.97;53.53;101223.88;4996038;28;20380;-90
2022/01/31 05:35:52;;;;;;;16.88;2.63;;;;;;;10.09;53.20;101223.22;4995867;28;20041;-90
2022/01/31 05:38:17;;;;;;;13.13;1.58;;;;;;;10.15;53.49;101222.94;4995872;28;20445;-90
2022/01/31 05:40:43;;;;;;;10.80;2.10;;;;;;;9.95;53.56;101220.50;4995975;28;20050;-91
2022/01/31 05:43:08;;;;;;;13.23;2.42;;;;;;;9.92;53.63;101219.72;4995626;28;20057;-90
2022/01/31 05:45:34;;;;;;;11.65;2.63;;;;;;;10.18;53.07;101228.00;4995856;28;20041;-91
2022/01/31 05:47:59;;;;;;;11.27;2.08;;;;;;;10.04;53.29;101230.50;4994418;28;20384;-91
2022/01/31 05:50:24;;;;;;;18.70;2.03;;;;;;;9.97;53.85;101248.34;4995645;28;20113;-90
2022/01/31 05:52:51;;;;;;;11.10;2.00;;;;;;;9.88;53.76;101241.81;4995595;28;20026;-90
2022/01/31 05:55:16;;;;;;;13.95;2.95;;;;;;;10.00;53.42;101247.34;4995538;28;20034;-90
2022/01/31 05:57:42;;;;;;;13.13;1.83;;;;;;;9.86;53.42;101238.41;4995915;28;20034;-90
2022/01/31 06:00:09;;;;;;;10.43;2.33;;;;;;;10.03;53.36;101237.53;4995473;28;20049;-91
2022/01/31 06:02:35;;;;;;;10.85;1.80;;;;;;;9.84;53.56;101223.69;4995366;28;20029;-91
2022/01/31 06:05:02;;;;;;;12.85;2.45;;;;;;;9.70;53.22;101224.41;4994241;28;20038;-90
2022/01/31 06:07:27;;;;;;;13.07;2.20;;;;;;;9.65;54.08;101227.22;4995243;28;20035;-90
2022/01/31 06:09:53;;;;;;;15.27;2.35;;;;;;;9.83;53.73;101217.56;4994295;28;20114;-90
2022/01/31 06:12:18;;;;;;;15.10;2.20;;;;;;;9.88;53.83;101217.34;4995303;28;20496;-92
2022/01/31 06:14:43;;;;;;;13.90;2.00;;;;;;;9.63;53.72;101209.91;4995402;28;20034;-91
2022/01/31 06:17:09;;;;;;;8.75;1.73;;;;;;;9.82;53.33;101215.91;4995357;28;20026;-90
2022/01/31 06:19:34;;;;;;;10.05;2.67;;;;;;;9.85;53.70;101221.00;4995282;28;20070;-90
2022/01/31 06:22:00;;;;;;;10.43;2.00;;;;;;;9.78;53.98;101216.97;4995592;28;20029;-90
2022/01/31 06:24:25;;;;;;;15.93;2.55;;;;;;;9.93;53.63;101220.56;4994989;28;20488;-91
2022/01/31 06:26:51;;;;;;;12.57;2.08;;;;;;;9.91;53.67;101228.53;4995071;28;20066;-90
2022/01/31 06:29:16;;;;;;;13.48;1.75;;;;;;;9.78;54.01;101237.97;4995340;28;20026;-90
2022/01/31 06:31:42;;;;;;;15.52;2.72;;;;;;;9.82;53.67;101242.13;4995037;28;20058;-90
2022/01/31 06:34:07;;;;;;;11.80;2.40;;;;;;;9.84;53.86;101239.44;4995207;28;20030;-90
2022/01/31 06:36:33;;;;;;;12.07;3.15;;;;;;;9.88;53.71;101244.44;4995031;28;20048;-90
2022/01/31 06:38:58;;;;;;;11.65;1.67;;;;;;;9.93;53.62;101268.66;4995032;28;20084;-90
2022/01/31 06:41:24;;;;;;;11.18;1.88;;;;;;;9.82;54.65;101270.13;4995064;28;20031;-90
2022/01/31 06:43:51;;;;;;;16.80;2.35;;;;;;;9.65;54.97;101261.31;4994829;28;20370;-91
2022/01/31 06:46:17;;;;;;;13.25;1.85;;;;;;;9.74;54.68;101257.41;4993300;28;20054;-90
2022/01/31 06:48:43;;;;;;;11.43;1.70;;;;;;;9.51;56.06;101251.53;4993391;28;20388;-90
2022/01/31 06:51:08;;;;;;;11.25;2.08;;;;;;;9.51;55.98;101251.53;4994746;28;20101;-91
2022/01/31 06:53:34;;;;;;;15.38;2.15;;;;;;;9.47;56.41;101275.38;4995175;28;20026;-92
2022/01/31 06:55:59;;;;;;;10.35;1.23;;;;;;;9.68;56.29;101273.47;4994552;28;20038;-91
2022/01/31 06:58:25;;;;;;;6.32;1.52;;;;;;;9.53;55.65;101275.06;4994992;28;20101;-94
2022/01/31 07:00:52;;;;;;;6.43;1.13;;;;;;;9.20;56.65;101286.28;4995898;28;20034;-92
2022/01/31 07:03:17;;;;;;;8.30;1.20;;;;;;;9.33;56.08;101273.41;4996731;28;20022;-91
2022/01/31 07:05:44;;;;;;;8.18;1.38;;;;;;;9.36;56.43;101299.50;4996518;28;20026;-92
2022/01/31 07:08:10;;;;;;;10.90;1.65;;;;;;;9.59;55.81;101297.50;4996122;28;20116;-92
2022/01/31 07:10:37;;;;;;;7.78;1.92;;;;;;;9.52;55.98;101302.22;4994790;28;20472;-93
2022/01/31 07:13:11;;;;;;;11.57;2.25;;;;;;;9.46;55.95;101295.50;4993567;28;20473;-93
2022/01/31 07:15:37;;;;;;;9.30;1.67;;;;;;;9.68;55.63;101315.41;4994832;28;20029;-93
2022/01/31 07:18:02;;;;;;;16.48;2.03;;;;;;;9.63;56.15;101307.75;4993434;28;20034;-94
2022/01/31 07:20:38;;;;;;;12.40;1.73;;;;;;;9.90;56.04;101307.31;4997503;28;20073;-93
2022/01/31 07:23:10;;;;;;;14.30;2.35;;;;;;;9.99;56.09;101319.09;4997049;28;20029;-92
2022/01/31 07:25:35;;;;;;;;;;;;;;;9.76;56.49;101301.91;4999530;28;20537;-88
2022/01/31 07:28:03;;;;;;;9.63;1.67;;;;;;;9.72;56.16;101280.25;5017047;28;19913;-93
2022/01/31 07:30:29;;;;;;;12.98;1.85;;;;;;;9.82;55.96;101307.69;5016573;28;20042;-92
2022/01/31 07:32:55;;;;;;;12.10;1.83;;;;;;;9.71;54.82;101315.25;5012631;28;20057;-92
2022/01/31 07:35:20;;;;;;;11.48;1.90;;;;;;;9.88;54.14;101314.41;5018309;28;20021;-95
2022/01/31 07:37:46;;;;;;;15.52;2.28;;;;;;;9.85;53.99;101318.03;5018438;28;20030;-94
2022/01/31 07:40:12;;;;;;;11.00;1.70;;;;;;;9.94;53.10;101332.47;5017262;28;20014;-92
2022/01/31 07:42:37;;;;;;;14.70;3.03;;;;;;;10.18;52.72;101338.22;5018036;28;20015;-92
2022/01/31 07:45:03;;;;;;;19.50;2.72;;;;;;;10.07;52.76;101344.03;4999028;28;20495;-92
2022/01/31 07:47:29;;;;;;;12.05;2.55;;;;;;;10.15;52.52;101335.78;4993397;28;20076;-93
2022/01/31 07:49:54;;;;;;;16.92;2.10;;;;;;;10.11;52.44;101342.09;4993068;28;20038;-92
2022/01/31 07:52:20;;;;;;;11.23;2.13;;;;;;;10.10;52.13;101366.66;4994584;28;20027;-94
2022/01/31 07:54:45;;;;;;;11.48;2.33;;;;;;;10.15;51.88;101362.03;4993039;28;20062;-92
2022/01/31 07:57:11;;;;;;;10.43;2.05;;;;;;;9.89;52.17;101361.56;4992776;28;20057;-92
2022/01/31 07:59:36;;;;;;;13.52;2.40;;;;;;;10.17;51.51;101370.66;4993766;28;20058;-92
2022/01/31 08:02:02;;;;;;;9.30;1.98;;;;;;;10.31;50.88;101380.50;4993968;28;20037;-92
2022/01/31 08:04:28;;;;;;;7.85;2.20;;;;;;;10.42;50.48;101399.13;4992436;28;20026;-93
2022/01/31 08:06:53;;;;;;;9.82;1.65;;;;;;;10.39;50.70;101386.19;4992473;28;20544;-92
2022/01/31 08:09:18;;;;;;;18.40;3.70;;;;;;;10.34;50.68;101389.97;4992553;28;20030;-94
2022/01/31 08:11:44;;;;;;;8.15;1.92;;;;;;;10.27;50.53;101390.25;4993548;28;20061;-94
2022/01/31 08:14:10;;;;;;;7.95;1.25;;;;;;;10.30;50.82;101390.13;4991779;28;20389;-92
2022/01/31 08:16:37;;;;;;;12.40;2.42;;;;;;;9.98;51.20;101385.63;4992045;28;20615;-90
2022/01/31 08:19:06;;;;;;;13.07;2.33;;;;;;;10.09;51.11;101399.03;4991745;28;20026;-89
2022/01/31 08:21:32;;;;;;;11.95;1.80;;;;;;;10.53;50.18;101417.00;4993040;28;20022;-90
2022/01/31 08:23:58;;;;;;;13.35;2.05;;;;;;;10.61;50.29;101435.81;4992731;28;20061;-92
2022/01/31 08:26:23;;;;;;;10.57;2.58;;;;;;;10.58;50.44;101427.25;4993008;28;20031;-92
2022/01/31 08:29:20;;;;;;;15.13;1.92;;;;;;;10.76;49.95;101420.19;4992341;28;20022;-92
2022/01/31 08:31:37;;;;;;;12.43;2.65;;;;;;;10.84;50.26;101416.25;4991744;28;20058;-90
2022/01/31 08:36:35;;;;;;;11.73;2.13;;;;;;;10.69;50.62;101446.78;4992087;28;20037;-92
2022/01/31 08:39:08;;;;;;;13.48;2.13;;;;;;;10.36;52.87;101448.50;4992840;28;20026;-94
2022/01/31 08:41:36;;;;;;;16.67;2.17;;;;;;;10.49;53.41;101439.09;4992014;28;20022;-93
2022/01/31 08:44:02;;;;;;;15.18;3.30;;;;;;;10.55;53.73;101457.16;4995627;28;20027;-93
2022/01/31 08:46:27;;;;;;;14.98;2.83;;;;;;;10.57;53.39;101462.31;4976520;28;20034;-93
2022/01/31 08:48:55;;;;;;;10.73;2.28;;;;;;;10.60;53.58;101467.41;4974574;28;20032;-93
2022/01/31 08:51:20;;;;;;;16.70;2.58;;;;;;;10.42;53.55;101474.44;4992715;28;20026;-93
2022/01/31 08:53:48;;;;;;;14.18;2.78;;;;;;;10.54;53.97;101478.22;4988601;28;20027;-93
2022/01/31 08:56:14;;;;;;;12.70;2.15;;;;;;;10.81;53.72;101484.69;4987885;28;20030;-92
2022/01/31 08:58:47;;;;;;;10.13;2.08;;;;;;;10.81;53.35;101478.59;4991170;28;20396;-92
2022/01/31 09:01:18;;;;;;;12.95;2.75;;;;;;;10.91;53.54;101467.50;4991419;28;20080;-93
2022/01/31 09:06:18;;;;;;;10.65;2.10;;;;;;;10.90;54.41;101471.09;4979102;28;20101;-93
2022/01/31 09:08:44;;;;;;;10.88;1.50;;;;;;;10.98;54.69;101472.44;4993562;28;20037;-94
2022/01/31 09:11:10;;;;;;;11.82;1.60;;;;;;;11.08;54.13;101485.03;4990983;28;20022;-93
2022/01/31 09:13:36;;;;;;;11.18;1.83;;;;;;;10.85;54.35;101499.38;4991427;28;20030;-91
2022/01/31 09:16:03;;;;;;;7.15;1.90;;;;;;;10.98;54.22;101499.59;4992208;28;20030;-93
2022/01/31 09:18:29;;;;;;;8.90;2.05;;;;;;;11.07;54.10;101511.41;4991313;28;20019;-91
2022/01/31 09:20:57;;;;;;;13.43;2.15;;;;;;;11.04;54.15;101509.78;4991792;28;20030;-92
2022/01/31 09:23:23;;;;;;;10.20;1.40;;;;;;;11.20;54.12;101517.72;4992311;28;20112;-92
2022/01/31 09:25:50;;;;;;;12.60;2.58;;;;;;;11.06;54.34;101513.19;4990834;28;20431;-93
2022/01/31 09:28:16;;;;;;;13.90;1.77;;;;;;;11.30;53.81;101536.47;4992523;28;20030;-92
2022/01/31 09:30:43;;;;;;;9.05;1.83;;;;;;;10.89;54.80;101563.13;4992430;28;20026;-93
2022/01/31 09:33:09;;;;;;;12.23;2.72;;;;;;;11.11;54.35;101541.84;4992348;28;20027;-92
2022/01/31 09:35:34;;;;;;;8.35;1.67;;;;;;;11.24;55.18;101531.56;4990561;28;20059;-93
2022/01/31 09:38:01;;;;;;;7.30;1.75;;;;;;;11.86;54.47;101545.69;4991191;28;20026;-92
2022/01/31 09:40:27;;;;;;;13.40;2.40;;;;;;;12.59;51.81;101537.22;4986305;28;20037;-92
2022/01/31 09:43:10;;;;;;;12.02;2.47;;;;;;;13.13;51.20;101536.69;4973506;28;20027;-91
2022/01/31 09:45:55;;;;;;;11.10;1.98;;;;;;;13.30;50.27;101556.78;4987126;28;20026;-92
2022/01/31 09:48:33;;;;;;;15.40;3.15;;;;;;;12.49;50.79;101551.88;4995710;28;20040;-93
2022/01/31 09:51:06;;;;;;;14.48;2.80;;;;;;;12.02;51.37;101563.31;4995210;28;20026;-93
2022/01/31 09:53:35;;;;;;;11.43;2.33;;;;;;;11.90;51.71;101560.41;4995574;28;20385;-93
2022/01/31 09:56:02;;;;;;;8.73;2.00;;;;;;;11.95;52.20;101567.22;4994323;28;20507;-93
2022/01/31 09:58:29;;;;;;;9.23;2.30;;;;;;;12.18;51.84;101556.25;4994570;28;20030;-93
2022/01/31 10:01:07;;;;;;;12.07;2.22;;;;;;;12.25;51.59;101562.88;4981191;28;20035;-93
2022/01/31 10:03:43;;;;;;;8.38;1.92;;;;;;;12.05;51.19;101547.38;4974643;28;20038;-93
2022/01/31 10:06:24;;;;;;;15.20;2.55;;;;;;;11.67;52.34;101532.72;4989908;28;20113;-93
2022/01/31 10:09:07;;;;;;;12.90;2.13;;;;;;;11.98;52.12;101532.84;4994126;28;20030;-93
2022/01/31 10:11:41;;;;;;;6.95;2.55;;;;;;;12.13;51.33;101542.50;4988467;28;20289;-94
2022/01/31 10:17:05;;;;;;;11.07;2.05;;;;;;;12.24;52.08;101571.72;4995627;28;20041;-92
2022/01/31 10:19:42;;;;;;;14.93;2.70;;;;;;;12.33;51.19;101591.41;4993924;28;20069;-94
2022/01/31 10:22:10;;;;;;;9.30;1.63;;;;;;;12.39;51.13;101574.41;4993989;28;20092;-94
2022/01/31 10:24:37;;;;;;;15.48;2.10;;;;;;;12.88;49.60;101572.41;4994010;28;20476;-92
2022/01/31 10:27:16;;;;;;;7.53;1.95;;;;;;;13.43;48.58;101578.00;4993992;28;20045;-93
2022/01/31 10:29:47;;;;;;;12.25;2.63;;;;;;;13.36;48.48;101584.56;4993990;28;20094;-93
2022/01/31 10:32:23;;;;;;;13.30;2.72;;;;;;;14.50;46.42;101575.59;4993720;28;20022;-93
2022/01/31 10:34:52;;;;;;;11.73;1.83;;;;;;;15.21;45.33;101570.88;4993811;28;20052;-91
2022/01/31 10:37:21;;;;;;;15.10;1.83;;;;;;;14.76;45.85;101580.97;4995317;28;20073;-92
2022/01/31 10:45:38;;;;;;;14.45;2.20;;;;;;;13.30;46.42;101598.97;4989476;28;20045;-92
2022/01/31 10:53:22;;;;;;;15.20;3.05;;;;;;;13.72;45.93;101599.91;4975407;28;20027;-91
2022/01/31 10:55:55;;;;;;;12.10;1.98;;;;;;;13.42;46.14;101610.59;4974583;28;20045;-90
2022/01/31 10:58:21;;;;;;;11.00;1.73;;;;;;;13.77;46.08;101602.28;4981872;28;20023;-92
2022/01/31 11:00:46;;;;;;;8.98;2.10;;;;;;;13.71;46.41;101610.59;4994668;28;20022;-92
2022/01/31 11:03:29;;;;;;;8.93;1.83;;;;;;;14.13;46.06;101603.56;4976551;28;20066;-91
2022/01/31 11:05:56;;;;;;;11.10;1.75;;;;;;;14.88;45.07;101609.25;4974563;28;20070;-92
2022/01/31 11:08:21;;;;;;;7.30;1.75;;;;;;;15.33;42.92;101611.53;4992431;28;20040;-93
2022/01/31 11:10:48;;;;;;;7.13;2.40;;;;;;;16.17;42.43;101621.50;4993622;28;20054;-93
2022/01/31 11:13:17;;;;;;;8.07;1.80;;;;;;;16.44;40.86;101634.53;4985195;28;20026;-92
2022/01/31 11:15:44;;;;;;;7.07;2.10;;;;;;;17.17;40.27;101635.31;4977115;28;20452;-91
2022/01/31 11:18:11;;;;;;;9.40;1.83;;;;;;;17.15;39.78;101636.41;4986244;28;20121;-93
2022/01/31 11:20:40;;;;;;;10.23;1.67;;;;;;;18.08;39.08;101641.56;4993567;28;20488;-92
2022/01/31 11:23:07;;;;;;;10.23;2.35;;;;;;;18.24;38.79;101634.03;4994077;28;20030;-91
2022/01/31 11:25:34;;;;;;;9.30;2.60;;;;;;;17.14;39.59;101640.00;4994622;28;20022;-91
2022/01/31 11:28:04;;;;;;;6.85;2.13;;;;;;;17.04;38.93;101640.72;4996785;28;20030;-91
2022/01/31 11:30:30;;;;;;;10.38;2.10;;;;;;;16.82;39.57;101657.41;5003460;28;20022;-90
2022/01/31 11:32:56;;;;;;;8.82;1.58;;;;;;;15.93;39.79;101655.03;5016326;28;20019;-93
2022/01/31 11:35:23;;;;;;;11.35;1.83;;;;;;;16.03;39.73;101654.28;5009401;28;20033;-91
2022/01/31 11:37:50;;;;;;;9.38;1.73;;;;;;;15.83;40.82;101660.97;5002586;28;20027;-92
2022/01/31 11:40:16;;;;;;;7.53;1.65;;;;;;;15.68;41.11;101648.78;5018511;28;20041;-93
2022/01/31 11:42:44;;;;;;;9.15;1.80;;;;;;;15.78;40.59;101649.03;5018092;28;20026;-93